createdAt,value
2022-08-22T00:02:04.566Z,2.85
2022-08-22T00:02:45.720Z,1.80
2022-08-22T00:02:48.065Z,1.70
2022-08-22T00:02:48.855Z,1.85
2022-08-22T00:03:07.039Z,1.65
2022-08-22T00:03:10.809Z,2.13
2022-08-22T00:03:12.194Z,1.92
2022-08-22T00:05:06.359Z,2.63
2022-08-22T00:08:00.270Z,2.15
2022-08-22T00:10:55.026Z,2.25
2022-08-22T00:13:22.784Z,3.30
2022-08-22T00:15:58.420Z,3.13
2022-08-22T00:18:35.261Z,2.72
2022-08-22T00:21:16.959Z,3.42
2022-08-22T00:24:01.584Z,2.95
2022-08-22T00:26:33.893Z,2.88
2022-08-22T00:31:37.813Z,2.50
2022-08-22T00:34:17.076Z,2.47
2022-08-22T00:37:07.261Z,1.88
2022-08-22T00:39:45.061Z,2.60
2022-08-22T00:42:32.020Z,2.42
2022-08-22T00:45:58.008Z,2.95
2022-08-22T00:48:55.561Z,1.90
2022-08-22T00:51:31.564Z,2.47
2022-08-22T00:53:59.091Z,1.90
2022-08-22T00:56:59.498Z,2.30
2022-08-22T00:59:52.239Z,2.53
2022-08-22T01:02:36.615Z,2.40
2022-08-22T01:05:41.044Z,2.35
2022-08-22T01:08:26.836Z,2.13
2022-08-22T01:11:31.733Z,2.35
2022-08-22T01:14:34.191Z,2.15
2022-08-22T01:17:32.524Z,1.90
2022-08-22T01:20:06.124Z,2.00
2022-08-22T01:22:33.185Z,2.03
2022-08-22T01:25:19.989Z,1.45
2022-08-22T01:28:11.792Z,1.80
2022-08-22T01:31:01.038Z,1.63
2022-08-22T01:33:31.139Z,2.15
2022-08-22T01:35:59.418Z,1.52
2022-08-22T01:38:37.846Z,2.22
2022-08-22T01:41:26.859Z,1.90
2022-08-22T01:44:14.267Z,2.90
2022-08-22T01:47:10.403Z,2.05
2022-08-22T01:49:49.875Z,2.30
2022-08-22T01:52:47.389Z,2.10
2022-08-22T01:55:31.867Z,1.77
2022-08-22T01:58:14.269Z,2.38
2022-08-22T02:01:15.094Z,1.90
2022-08-22T02:04:14.714Z,2.50
2022-08-22T02:06:52.753Z,1.70
2022-08-22T02:09:38.803Z,2.00
2022-08-22T02:12:30.203Z,1.98
2022-08-22T02:15:07.745Z,2.20
2022-08-22T02:18:01.097Z,2.30
2022-08-22T02:21:12.094Z,1.73
2022-08-22T02:24:29.437Z,1.83
2022-08-22T02:27:08.374Z,2.05
2022-08-22T02:29:38.316Z,1.98
2022-08-22T02:32:37.779Z,1.95
2022-08-22T02:35:18.741Z,1.85
2022-08-22T02:38:02.940Z,1.95
2022-08-22T02:41:15.008Z,1.88
2022-08-22T02:44:21.193Z,2.13
2022-08-22T02:47:23.271Z,1.90
2022-08-22T02:50:03.238Z,2.20
2022-08-22T02:52:49.482Z,2.35
2022-08-22T02:55:29.751Z,2.30
2022-08-22T02:58:23.373Z,2.22
2022-08-22T03:00:58.997Z,2.20
2022-08-22T03:03:30.302Z,2.10
2022-08-22T03:06:05.457Z,1.98
2022-08-22T03:08:38.111Z,1.90
2022-08-22T03:11:24.390Z,2.10
2022-08-22T03:14:14.071Z,1.83
2022-08-22T03:17:01.146Z,1.70
2022-08-22T03:19:50.808Z,1.92
2022-08-22T03:22:31.410Z,1.83
2022-08-22T03:25:12.952Z,2.00
2022-08-22T03:27:51.653Z,1.73
2022-08-22T03:30:29.698Z,2.45
2022-08-22T03:33:12.802Z,1.95
2022-08-22T03:35:51.805Z,2.03
2022-08-22T03:38:34.244Z,2.22
2022-08-22T03:41:16.553Z,2.30
2022-08-22T03:44:21.410Z,1.75
2022-08-22T03:46:57.450Z,1.73
2022-08-22T03:49:59.727Z,1.98
2022-08-22T03:53:01.428Z,1.95
2022-08-22T03:55:46.796Z,1.52
2022-08-22T03:58:28.832Z,1.95
2022-08-22T04:01:02.664Z,1.77
2022-08-22T04:03:54.574Z,1.70
2022-08-22T04:06:40.254Z,1.77
2022-08-22T04:09:23.897Z,2.00
2022-08-22T04:12:10.574Z,1.85
2022-08-22T04:15:04.798Z,2.00
2022-08-22T04:17:48.821Z,1.80
2022-08-22T04:20:43.474Z,1.80
2022-08-22T04:23:32.461Z,2.03
2022-08-22T04:26:12.155Z,1.65
2022-08-22T04:28:50.970Z,1.70
2022-08-22T04:31:29.913Z,1.83
2022-08-22T04:34:09.750Z,2.00
2022-08-22T04:36:54.025Z,1.40
2022-08-22T04:39:47.206Z,1.83
2022-08-22T04:42:32.683Z,2.08
2022-08-22T04:45:17.102Z,1.75
2022-08-22T04:48:04.076Z,2.05
2022-08-22T04:50:50.885Z,1.92
2022-08-22T04:53:23.534Z,1.75
2022-08-22T04:56:24.353Z,2.00
2022-08-22T04:59:03.043Z,2.42
2022-08-22T05:01:44.999Z,2.22
2022-08-22T05:04:23.719Z,2.30
2022-08-22T05:07:12.181Z,2.63
2022-08-22T05:09:45.223Z,2.20
2022-08-22T05:12:21.486Z,2.00
2022-08-22T05:15:45.727Z,2.35
2022-08-22T05:18:19.723Z,2.40
2022-08-22T05:20:50.199Z,2.42
2022-08-22T05:23:21.241Z,1.80
2022-08-22T05:25:52.177Z,2.00
2022-08-22T05:28:53.289Z,2.38
2022-08-22T05:31:29.249Z,2.13
2022-08-22T05:34:05.840Z,1.90
2022-08-22T05:36:39.237Z,1.90
2022-08-22T05:39:09.853Z,2.15
2022-08-22T05:41:39.257Z,1.95
2022-08-22T05:44:37.977Z,2.28
2022-08-22T05:47:22.965Z,1.90
2022-08-22T05:50:07.228Z,1.90
2022-08-22T05:52:59.169Z,2.15
2022-08-22T05:55:44.002Z,2.08
2022-08-22T05:58:16.853Z,1.55
2022-08-22T06:00:49.141Z,2.17
2022-08-22T06:05:53.832Z,1.60
2022-08-22T06:08:37.666Z,1.63
2022-08-22T06:11:34.025Z,2.20
2022-08-22T06:14:19.622Z,1.95
2022-08-22T06:17:00.029Z,2.40
2022-08-22T06:19:27.677Z,2.58
2022-08-22T06:21:56.431Z,2.08
2022-08-22T06:24:26.606Z,2.38
2022-08-22T06:26:58.395Z,2.55
2022-08-22T06:29:44.274Z,1.92
2022-08-22T06:32:44.513Z,2.33
2022-08-22T06:35:53.383Z,2.10
2022-08-22T06:38:22.392Z,2.33
2022-08-22T06:40:54.424Z,1.80
2022-08-22T06:43:24.769Z,2.53
2022-08-22T06:45:53.464Z,2.10
2022-08-22T06:48:23.852Z,1.80
2022-08-22T06:50:56.962Z,1.77
2022-08-22T06:53:35.277Z,1.92
2022-08-22T06:56:07.440Z,2.10
2022-08-22T06:58:44.351Z,2.08
2022-08-22T07:01:20.771Z,1.48
2022-08-22T07:03:52.838Z,1.95
2022-08-22T07:06:29.284Z,1.67
2022-08-22T07:08:57.243Z,1.92
2022-08-22T07:11:34.621Z,2.17
2022-08-22T07:14:05.790Z,1.75
2022-08-22T07:16:55.319Z,1.98
2022-08-22T07:19:32.610Z,2.65
2022-08-22T07:22:11.186Z,1.95
2022-08-22T07:24:52.347Z,1.70
2022-08-22T07:28:06.963Z,1.48
2022-08-22T07:30:56.622Z,1.85
2022-08-22T07:33:42.251Z,1.80
2022-08-22T07:36:32.117Z,1.50
2022-08-22T07:39:30.670Z,1.25
2022-08-22T07:42:05.019Z,2.03
2022-08-22T07:45:14.846Z,1.80
2022-08-22T07:48:02.984Z,2.03
2022-08-22T07:50:34.941Z,1.45
2022-08-22T07:53:16.882Z,1.65
2022-08-22T07:55:49.459Z,2.10
2022-08-22T07:58:18.061Z,1.85
2022-08-22T08:00:48.232Z,2.65
2022-08-22T08:03:16.191Z,2.03
2022-08-22T08:05:45.034Z,1.70
2022-08-22T08:08:31.154Z,2.17
2022-08-22T08:11:00.402Z,1.88
2022-08-22T08:13:36.478Z,1.92
2022-08-22T08:16:07.222Z,2.17
2022-08-22T08:18:36.146Z,2.05
2022-08-22T08:21:07.513Z,1.50
2022-08-22T08:23:45.106Z,1.97
2022-08-22T08:26:17.402Z,1.67
2022-08-22T08:31:26.996Z,1.67
2022-08-22T08:34:05.357Z,1.70
2022-08-22T08:36:49.343Z,1.67
2022-08-22T08:39:48.645Z,2.13
2022-08-22T08:42:24.556Z,2.40
2022-08-22T08:45:20.484Z,2.10
2022-08-22T08:48:14.086Z,2.00
2022-08-22T08:50:59.109Z,1.60
2022-08-22T08:54:03.380Z,2.33
2022-08-22T08:56:38.266Z,1.55
2022-08-22T08:59:17.511Z,1.70
2022-08-22T09:02:13.799Z,1.63
2022-08-22T09:08:12.667Z,2.00
2022-08-22T09:10:39.831Z,1.90
2022-08-22T09:13:13.072Z,1.20
2022-08-22T09:15:43.037Z,1.83
2022-08-22T09:19:07.099Z,2.28
2022-08-22T09:21:34.320Z,2.33
2022-08-22T09:24:21.060Z,1.88
2022-08-22T09:27:02.996Z,1.83
2022-08-22T09:29:59.649Z,1.90
2022-08-22T09:32:45.284Z,1.98
2022-08-22T09:35:45.845Z,1.80
2022-08-22T09:38:47.830Z,1.77
2022-08-22T09:41:24.260Z,1.83
2022-08-22T09:44:06.973Z,1.25
2022-08-22T09:47:12.581Z,1.17
2022-08-22T09:50:04.973Z,1.38
2022-08-22T09:53:08.048Z,1.50
2022-08-22T09:55:40.981Z,1.00
2022-08-22T09:58:11.504Z,2.00
2022-08-22T10:01:09.573Z,1.45
2022-08-22T10:03:45.873Z,1.15
2022-08-22T10:06:20.933Z,1.80
2022-08-22T10:09:31.159Z,1.27
2022-08-22T10:12:12.254Z,1.17
2022-08-22T10:15:01.436Z,1.30
2022-08-22T10:17:33.438Z,0.93
2022-08-22T10:20:13.623Z,1.00
2022-08-22T10:22:56.517Z,1.38
2022-08-22T10:25:45.940Z,1.48
2022-08-22T10:28:32.381Z,1.15
2022-08-22T10:31:30.416Z,1.40
2022-08-22T10:34:10.760Z,1.23
2022-08-22T10:36:57.081Z,1.60
2022-08-22T10:39:28.860Z,1.00
2022-08-22T10:42:20.270Z,0.85
2022-08-22T10:45:23.874Z,1.13
2022-08-22T10:48:10.200Z,0.98
2022-08-22T10:50:49.968Z,1.30
2022-08-22T10:53:35.408Z,0.70
2022-08-22T10:56:36.611Z,1.02
2022-08-22T10:59:09.307Z,1.13
2022-08-22T11:01:44.236Z,1.13
2022-08-22T11:04:28.181Z,1.15
2022-08-22T11:06:58.801Z,1.30
2022-08-22T11:09:37.112Z,0.93
2022-08-22T11:12:28.222Z,0.90
2022-08-22T11:15:04.773Z,1.13
2022-08-22T11:17:34.606Z,0.73
2022-08-22T11:20:26.494Z,1.08
2022-08-22T11:23:14.617Z,0.85
2022-08-22T11:25:56.232Z,0.65
2022-08-22T11:28:37.261Z,0.88
2022-08-22T11:31:47.171Z,0.98
2022-08-22T11:34:28.564Z,0.75
2022-08-22T11:37:18.474Z,0.70
2022-08-22T11:40:07.636Z,1.10
2022-08-22T11:43:18.204Z,1.08
2022-08-22T11:45:52.304Z,0.90
2022-08-22T11:48:44.365Z,1.23
2022-08-22T11:51:41.144Z,1.73
2022-08-22T11:54:17.683Z,0.85
2022-08-22T11:57:03.512Z,1.00
2022-08-22T11:59:55.970Z,0.98
2022-08-22T12:07:37.665Z,1.52
2022-08-22T12:10:13.802Z,1.42
2022-08-22T12:13:21.552Z,1.27
2022-08-22T12:16:08.213Z,1.10
2022-08-22T12:18:52.943Z,1.15
2022-08-22T12:21:26.172Z,1.20
2022-08-22T12:24:19.195Z,1.15
2022-08-22T12:27:18.311Z,0.80
2022-08-22T12:30:12.967Z,0.80
2022-08-22T12:33:23.003Z,1.13
2022-08-22T12:36:18.426Z,1.60
2022-08-22T12:39:29.305Z,0.82
2022-08-22T12:42:21.058Z,1.20
2022-08-22T12:45:00.201Z,4.53
2022-08-22T12:47:36.934Z,1.15
2022-08-22T12:50:18.362Z,1.13
2022-08-22T12:53:03.460Z,0.95
2022-08-22T12:55:51.094Z,0.90
2022-08-22T12:58:34.018Z,1.10
2022-08-22T13:01:06.744Z,0.80
2022-08-22T13:04:01.274Z,0.75
2022-08-22T13:06:38.111Z,0.90
2022-08-22T13:09:18.910Z,1.13
2022-08-22T13:11:49.604Z,0.90
2022-08-22T13:14:25.969Z,0.88
2022-08-22T13:16:58.023Z,0.85
2022-08-22T13:19:33.237Z,0.88
2022-08-22T13:22:08.509Z,0.75
2022-08-22T13:25:14.460Z,0.60
2022-08-22T13:27:51.019Z,0.90
2022-08-22T13:30:38.699Z,1.02
2022-08-22T13:33:16.394Z,1.15
2022-08-22T13:35:52.289Z,0.77
2022-08-22T13:38:25.779Z,1.13
2022-08-22T13:40:55.819Z,0.93
2022-08-22T13:43:28.336Z,0.90
2022-08-22T13:46:07.249Z,1.25
2022-08-22T13:48:47.033Z,1.17
2022-08-22T13:51:34.428Z,1.33
2022-08-22T13:54:27.127Z,1.23
2022-08-22T13:57:15.417Z,1.27
2022-08-22T13:59:55.423Z,1.13
2022-08-22T14:02:46.950Z,1.58
2022-08-22T14:05:26.490Z,1.15
2022-08-22T14:08:15.520Z,1.27
2022-08-22T14:11:06.870Z,0.98
2022-08-22T14:13:38.261Z,1.60
2022-08-22T14:16:12.293Z,1.27
2022-08-22T14:18:49.607Z,1.73
2022-08-22T14:21:40.058Z,1.73
2022-08-22T14:24:18.986Z,1.60
2022-08-22T14:26:59.994Z,1.35
2022-08-22T14:29:50.147Z,1.58
2022-08-22T14:32:25.842Z,1.30
2022-08-22T14:35:23.258Z,2.03
2022-08-22T14:38:17.299Z,1.85
2022-08-22T14:40:47.187Z,1.67
2022-08-22T14:43:29.709Z,2.28
2022-08-22T14:46:08.244Z,1.58
2022-08-22T14:49:18.623Z,1.50
2022-08-22T14:52:06.807Z,1.30
2022-08-22T14:54:37.333Z,1.10
2022-08-22T14:57:20.499Z,0.90
2022-08-22T14:59:52.979Z,1.30
2022-08-22T15:02:30.977Z,1.73
2022-08-22T15:05:11.520Z,1.10
2022-08-22T15:07:40.307Z,1.15
2022-08-22T15:10:23.508Z,1.30
2022-08-22T15:12:54.075Z,1.15
2022-08-22T15:15:52.790Z,1.15
2022-08-22T15:18:28.143Z,1.55
2022-08-22T15:21:08.942Z,1.02
2022-08-22T15:23:45.430Z,0.80
2022-08-22T15:26:34.264Z,0.80
2022-08-22T15:29:05.198Z,0.90
2022-08-22T15:31:34.286Z,0.80
2022-08-22T15:34:12.426Z,1.00
2022-08-22T15:37:09.092Z,0.73
2022-08-22T15:40:02.989Z,0.70
2022-08-22T15:42:39.518Z,0.82
2022-08-22T15:45:08.457Z,0.70
2022-08-22T15:47:41.921Z,0.93
2022-08-22T15:50:27.374Z,0.68
2022-08-22T15:53:20.896Z,0.90
2022-08-22T15:56:05.486Z,0.70
2022-08-22T15:58:37.344Z,0.95
2022-08-22T16:01:18.900Z,1.20
2022-08-22T16:06:52.765Z,1.10
2022-08-22T16:09:35.820Z,1.30
2022-08-22T16:12:09.784Z,1.20
2022-08-22T16:14:37.008Z,1.20
2022-08-22T16:17:04.542Z,1.23
2022-08-22T16:19:34.139Z,0.70
2022-08-22T16:22:02.772Z,1.35
2022-08-22T16:24:33.843Z,0.82
2022-08-22T16:27:18.900Z,0.65
2022-08-22T16:29:46.883Z,0.60
2022-08-22T16:32:26.146Z,0.88
2022-08-22T16:34:53.423Z,1.48
2022-08-22T16:37:49.225Z,1.20
2022-08-22T16:40:22.199Z,0.60
2022-08-22T16:43:13.883Z,0.63
2022-08-22T16:45:45.707Z,0.80
2022-08-22T16:48:36.447Z,1.00
2022-08-22T16:51:18.656Z,0.77
2022-08-22T16:54:07.435Z,1.15
2022-08-22T16:57:07.806Z,0.93
2022-08-22T17:00:13.279Z,0.82
2022-08-22T17:02:58.393Z,1.70
2022-08-22T17:05:51.626Z,0.90
2022-08-22T17:08:54.277Z,0.93
2022-08-22T17:11:43.970Z,1.08
2022-08-22T17:14:41.912Z,0.82
2022-08-22T17:17:17.159Z,1.13
2022-08-22T17:19:50.139Z,1.40
2022-08-22T17:22:29.335Z,1.10
2022-08-22T17:25:22.560Z,1.00
2022-08-22T17:28:04.449Z,1.55
2022-08-22T17:31:02.217Z,1.23
2022-08-22T17:33:41.655Z,0.82
2022-08-22T17:36:31.923Z,1.08
2022-08-22T17:39:34.135Z,1.00
2022-08-22T17:42:25.382Z,1.40
2022-08-22T17:45:28.309Z,1.27
2022-08-22T17:48:02.714Z,1.10
2022-08-22T17:50:46.075Z,0.82
2022-08-22T17:53:37.904Z,0.70
2022-08-22T17:56:22.565Z,0.90
2022-08-22T17:59:25.677Z,1.58
2022-08-22T18:02:16.801Z,1.20
2022-08-22T18:04:52.324Z,1.42
2022-08-22T18:07:39.940Z,1.30
2022-08-22T18:10:22.336Z,0.80
2022-08-22T18:12:56.537Z,0.95
2022-08-22T18:15:29.223Z,0.70
2022-08-22T18:18:15.643Z,0.98
2022-08-22T18:21:07.324Z,1.20
2022-08-22T18:23:41.529Z,0.82
2022-08-22T18:26:29.470Z,0.63
2022-08-22T18:29:08.836Z,0.70
2022-08-22T18:31:38.456Z,0.90
2022-08-22T18:34:32.470Z,0.80
2022-08-22T18:37:07.530Z,0.73
2022-08-22T18:39:56.407Z,0.73
2022-08-22T18:42:30.230Z,1.08
2022-08-22T18:44:57.776Z,0.70
2022-08-22T18:47:27.488Z,0.82
2022-08-22T18:49:56.098Z,0.47
2022-08-22T18:52:34.188Z,1.13
2022-08-22T18:55:04.551Z,1.15
2022-08-22T18:58:05.970Z,0.80
2022-08-22T19:00:58.316Z,1.20
2022-08-22T19:03:49.246Z,0.85
2022-08-22T19:06:25.714Z,0.90
2022-08-22T19:09:25.340Z,0.68
2022-08-22T19:12:15.585Z,0.63
2022-08-22T19:15:21.258Z,1.10
2022-08-22T19:18:02.731Z,0.57
2022-08-22T19:20:57.701Z,0.85
2022-08-22T19:23:43.728Z,1.05
2022-08-22T19:26:37.929Z,0.90
2022-08-22T19:29:27.486Z,0.95
2022-08-22T19:32:06.741Z,0.88
2022-08-22T19:34:47.840Z,0.70
2022-08-22T19:37:31.088Z,0.80
2022-08-22T19:40:02.963Z,0.70
2022-08-22T19:42:36.019Z,1.00
2022-08-22T19:45:19.114Z,0.95
2022-08-22T19:47:59.304Z,0.60
2022-08-22T19:50:32.865Z,0.80
2022-08-22T19:53:29.353Z,0.40
2022-08-22T19:56:21.561Z,0.52
2022-08-22T19:59:07.485Z,0.98
2022-08-22T20:01:58.152Z,0.85
2022-08-22T20:04:41.796Z,0.90
2022-08-22T20:07:15.284Z,0.70
2022-08-22T20:09:56.242Z,0.80
2022-08-22T20:12:29.419Z,0.63
2022-08-22T20:14:57.325Z,0.60
2022-08-22T20:17:24.569Z,0.50
2022-08-22T20:22:53.241Z,0.85
2022-08-22T20:25:42.698Z,0.57
2022-08-22T20:28:39.663Z,0.73
2022-08-22T20:31:12.446Z,0.65
2022-08-22T20:33:46.134Z,0.65
2022-08-22T20:36:28.153Z,0.75
2022-08-22T20:39:08.010Z,0.60
2022-08-22T20:41:45.942Z,0.73
2022-08-22T20:44:43.101Z,0.60
2022-08-22T20:47:20.635Z,0.70
2022-08-22T20:49:58.584Z,0.68
2022-08-22T20:52:39.132Z,0.50
2022-08-22T20:55:09.082Z,0.60
2022-08-22T20:57:55.078Z,0.50
2022-08-22T21:00:25.943Z,0.40
2022-08-22T21:03:11.398Z,0.50
2022-08-22T21:05:44.644Z,0.55
2022-08-22T21:08:20.089Z,0.40
2022-08-22T21:11:22.204Z,0.80
2022-08-22T21:13:49.909Z,0.70
2022-08-22T21:16:32.070Z,0.60
2022-08-22T21:19:03.432Z,0.80
2022-08-22T21:21:35.195Z,0.80
2022-08-22T21:24:06.114Z,1.00
2022-08-22T21:26:38.694Z,0.80
2022-08-22T21:29:18.483Z,0.75
2022-08-22T21:31:56.236Z,1.48
2022-08-22T21:34:47.527Z,0.80
2022-08-22T21:37:48.044Z,1.55
2022-08-22T21:40:23.924Z,1.65
2022-08-22T21:43:27.185Z,1.77
2022-08-22T21:45:54.587Z,1.48
2022-08-22T21:48:33.777Z,1.48
2022-08-22T21:51:31.812Z,1.30
2022-08-22T21:54:29.970Z,1.25
2022-08-22T21:57:17.102Z,0.90
2022-08-22T21:59:52.309Z,0.90
2022-08-22T22:02:34.222Z,1.13
2022-08-22T22:05:11.344Z,0.60
2022-08-22T22:07:41.622Z,0.60
2022-08-22T22:10:11.305Z,0.65
2022-08-22T22:12:41.230Z,0.60
2022-08-22T22:15:12.841Z,0.90
2022-08-22T22:17:40.003Z,0.80
2022-08-22T22:20:07.878Z,0.65
2022-08-22T22:22:37.016Z,0.80
2022-08-22T22:25:38.876Z,0.70
2022-08-22T22:28:00.015Z,0.65
2022-08-22T22:30:27.322Z,0.50
2022-08-22T22:32:54.499Z,0.63
2022-08-22T22:35:22.154Z,0.60
2022-08-22T22:37:49.362Z,0.60
2022-08-22T22:40:16.755Z,0.50
2022-08-22T22:42:44.248Z,0.50
2022-08-22T22:45:11.524Z,0.50
2022-08-22T22:47:38.884Z,0.70
2022-08-22T22:50:07.062Z,0.77
2022-08-22T22:52:34.991Z,1.30
2022-08-22T22:55:08.954Z,1.02
2022-08-22T22:57:41.381Z,0.65
2022-08-22T23:00:12.848Z,1.10
2022-08-22T23:02:40.769Z,1.20
2022-08-22T23:05:09.993Z,1.10
2022-08-22T23:07:37.966Z,1.15
2022-08-22T23:10:07.159Z,1.08
2022-08-22T23:12:36.915Z,1.02
2022-08-22T23:15:06.479Z,0.88
2022-08-22T23:17:35.175Z,1.13
2022-08-22T23:20:02.441Z,0.60
2022-08-22T23:22:30.798Z,0.60
2022-08-22T23:24:58.056Z,0.70
2022-08-22T23:27:25.403Z,0.60
2022-08-22T23:29:53.404Z,1.08
2022-08-22T23:32:20.703Z,0.60
2022-08-22T23:34:48.831Z,0.70
2022-08-22T23:37:19.016Z,0.60
2022-08-22T23:39:46.911Z,0.80
2022-08-22T23:42:16.010Z,0.60
2022-08-22T23:44:45.315Z,0.85
2022-08-22T23:47:13.958Z,0.50
2022-08-22T23:49:42.319Z,0.38
2022-08-22T23:52:11.465Z,0.45
2022-08-22T23:54:38.948Z,0.47
2022-08-22T23:57:12.063Z,0.60
2022-08-22T23:59:46.309Z,0.47
